Terminal Aerodrome Forecast
Issued by NWS

Home | Current Version | Previous Version | Text Only | Print | Product List | Glossary On
Versions: 1 2 3 4 5 6 7 8 9 10 11 12 13 14 15 16 17 18 19 20 21 22 23 24 25 26 27 28 29
000
FTUS46 KSEW 280500
TAFSEA
TAF
KSEA 280540Z 2806/2912 29006KT P6SM BKN008 OVC025
     FM280800 18003KT P6SM SCT002 BKN008 OVC020
     FM281200 VRB03KT 4SM BR OVC004
      TEMPO 2814/2817 3/4SM BR OVC002
     FM281800 VRB03KT P6SM OVC010
     FM282100 34003KT P6SM BKN040=

USA.gov is the U.S. government's official web portal to all federal, state and local government web resources and services.